createdAt,value
2022-10-22T00:01:48.328Z,11.48
2022-10-22T00:04:35.693Z,13.35
2022-10-22T00:07:21.598Z,1.67
2022-10-22T00:10:08.433Z,18.92
2022-10-22T00:12:54.473Z,8.60
2022-10-22T00:15:40.724Z,2.45
2022-10-22T00:18:27.147Z,14.60
2022-10-22T00:21:13.484Z,13.40
2022-10-22T00:23:59.683Z,5.05
2022-10-22T00:26:46.152Z,13.38
2022-10-22T00:29:51.308Z,9.77
2022-10-22T00:32:37.675Z,1.90
2022-10-22T00:35:23.819Z,18.08
2022-10-22T00:38:09.979Z,3.33
2022-10-22T00:40:56.648Z,9.45
2022-10-22T00:44:00.194Z,9.23
2022-10-22T00:46:46.020Z,12.10
2022-10-22T00:49:32.339Z,4.68
2022-10-22T00:52:18.517Z,6.22
2022-10-22T00:55:05.149Z,12.52
2022-10-22T00:57:52.257Z,9.73
2022-10-22T01:00:38.626Z,4.28
2022-10-22T01:03:24.710Z,13.93
2022-10-22T01:06:12.877Z,10.45
2022-10-22T01:09:02.505Z,10.05
2022-10-22T01:11:53.790Z,5.40
2022-10-22T01:14:46.341Z,3.55
2022-10-22T01:17:38.611Z,11.90
2022-10-22T01:20:28.571Z,20.58
2022-10-22T01:23:14.698Z,6.65
2022-10-22T01:26:06.584Z,8.68
2022-10-22T01:28:57.128Z,16.73
2022-10-22T01:31:45.815Z,14.48
2022-10-22T01:34:32.541Z,2.28
2022-10-22T01:37:20.170Z,10.43
2022-10-22T01:40:09.213Z,7.60
2022-10-22T01:43:13.966Z,13.60
2022-10-22T01:46:02.588Z,7.20
2022-10-22T01:49:07.408Z,2.20
2022-10-22T01:52:03.197Z,12.35
2022-10-22T01:54:49.248Z,3.10
2022-10-22T01:57:42.121Z,10.70
2022-10-22T02:00:28.717Z,14.65
2022-10-22T02:03:21.268Z,2.67
2022-10-22T02:06:14.253Z,11.98
2022-10-22T02:09:20.254Z,5.82
2022-10-22T02:12:07.106Z,18.80
2022-10-22T02:14:54.038Z,15.00
2022-10-22T02:17:40.959Z,7.30
2022-10-22T02:20:28.742Z,11.20
2022-10-22T02:23:15.181Z,14.60
2022-10-22T02:26:09.647Z,8.05
2022-10-22T02:29:02.529Z,4.18
2022-10-22T02:31:49.191Z,10.75
2022-10-22T02:34:35.286Z,4.57
2022-10-22T02:37:22.343Z,3.53
2022-10-22T02:40:09.423Z,11.18
2022-10-22T02:42:55.957Z,7.78
2022-10-22T02:45:42.287Z,5.88
2022-10-22T02:48:28.585Z,1.65
2022-10-22T02:51:14.944Z,14.80
2022-10-22T02:54:01.083Z,11.98
2022-10-22T02:56:47.427Z,5.05
2022-10-22T02:59:33.481Z,8.77
2022-10-22T03:02:19.645Z,15.45
2022-10-22T03:05:06.154Z,8.35
2022-10-22T03:07:52.060Z,10.10
2022-10-22T03:10:38.377Z,5.10
2022-10-22T03:13:24.729Z,11.13
2022-10-22T03:16:10.841Z,4.32
2022-10-22T03:18:57.295Z,2.38
2022-10-22T03:21:49.898Z,21.45
2022-10-22T03:24:38.657Z,3.58
2022-10-22T03:27:25.266Z,14.68
2022-10-22T03:30:17.836Z,10.90
2022-10-22T03:33:03.570Z,6.03
2022-10-22T03:35:50.020Z,3.95
2022-10-22T03:38:37.611Z,3.10
2022-10-22T03:41:23.884Z,15.05
2022-10-22T03:44:10.541Z,2.38
2022-10-22T03:46:58.783Z,3.13
2022-10-22T03:49:47.952Z,4.47
2022-10-22T03:52:38.358Z,5.60
2022-10-22T03:55:24.872Z,3.03
2022-10-22T03:58:10.966Z,19.85
2022-10-22T04:00:57.075Z,3.65
2022-10-22T04:03:43.326Z,16.88
2022-10-22T04:06:29.942Z,13.40
2022-10-22T04:09:16.169Z,2.55
2022-10-22T04:12:02.440Z,9.85
2022-10-22T04:14:48.531Z,13.77
2022-10-22T04:17:35.731Z,5.32
2022-10-22T04:20:22.168Z,14.73
2022-10-22T04:23:08.343Z,2.45
2022-10-22T04:25:58.787Z,6.20
2022-10-22T04:28:45.135Z,12.95
2022-10-22T04:31:31.242Z,4.80
2022-10-22T04:34:17.472Z,8.63
2022-10-22T04:37:04.972Z,20.40
2022-10-22T04:39:50.937Z,13.80
2022-10-22T04:42:37.141Z,5.78
2022-10-22T04:45:23.330Z,10.23
2022-10-22T04:48:09.694Z,10.25
2022-10-22T04:50:57.138Z,3.40
2022-10-22T04:53:43.832Z,13.80
2022-10-22T04:56:30.709Z,2.92
2022-10-22T04:59:16.648Z,12.07
2022-10-22T05:02:03.067Z,4.32
2022-10-22T05:04:49.236Z,13.80
2022-10-22T05:07:35.334Z,10.68
2022-10-22T05:10:21.750Z,30.25
2022-10-22T05:13:07.905Z,1.92
2022-10-22T05:15:54.422Z,8.45
2022-10-22T05:18:41.999Z,14.60
2022-10-22T05:21:46.677Z,3.30
2022-10-22T05:24:33.896Z,10.98
2022-10-22T05:30:10.886Z,2.85
2022-10-22T05:32:56.923Z,16.02
2022-10-22T05:35:46.701Z,7.03
2022-10-22T05:38:34.428Z,7.88
2022-10-22T05:41:22.420Z,28.00
2022-10-22T05:44:11.112Z,7.32
2022-10-22T05:46:57.327Z,14.95
2022-10-22T05:49:43.626Z,8.40
2022-10-22T05:52:29.712Z,16.08
2022-10-22T05:55:15.920Z,13.57
2022-10-22T05:58:02.261Z,13.45
2022-10-22T06:00:48.604Z,5.63
2022-10-22T06:03:35.344Z,19.67
2022-10-22T06:06:26.011Z,12.70
2022-10-22T06:09:12.012Z,16.95
2022-10-22T06:11:58.581Z,16.48
2022-10-22T06:14:44.826Z,15.45
2022-10-22T06:17:31.189Z,13.00
2022-10-22T06:20:17.766Z,6.35
2022-10-22T06:23:04.236Z,22.13
2022-10-22T06:25:57.436Z,12.30
2022-10-22T06:28:43.778Z,13.13
2022-10-22T06:31:33.492Z,14.10
2022-10-22T06:34:19.718Z,18.83
2022-10-22T06:37:05.722Z,12.30
2022-10-22T06:39:51.845Z,12.38
2022-10-22T06:42:38.250Z,12.75
2022-10-22T06:45:25.012Z,14.27
2022-10-22T06:48:11.180Z,13.48
2022-10-22T06:51:01.363Z,4.00
2022-10-22T06:53:47.605Z,17.25
2022-10-22T06:56:33.727Z,13.43
2022-10-22T06:59:19.814Z,13.50
2022-10-22T07:02:06.357Z,9.20
2022-10-22T07:04:52.771Z,9.93
2022-10-22T07:07:38.773Z,10.50
2022-10-22T07:10:29.869Z,11.60
2022-10-22T07:13:17.188Z,10.52
2022-10-22T07:16:03.999Z,10.13
2022-10-22T07:18:50.677Z,11.32
2022-10-22T07:21:37.589Z,12.23
2022-10-22T07:24:23.805Z,16.90
2022-10-22T07:27:11.049Z,11.65
2022-10-22T07:30:01.112Z,11.10
2022-10-22T07:32:47.050Z,8.10
2022-10-22T07:35:34.507Z,10.43
2022-10-22T07:38:20.352Z,14.85
2022-10-22T07:41:25.807Z,12.35
2022-10-22T07:44:12.347Z,12.13
2022-10-22T07:46:58.718Z,9.45
2022-10-22T07:49:44.962Z,10.48
2022-10-22T07:52:31.136Z,11.55
2022-10-22T07:55:36.078Z,8.48
2022-10-22T07:58:22.181Z,14.45
2022-10-22T08:01:08.769Z,12.30
2022-10-22T08:03:54.897Z,12.80
2022-10-22T08:06:45.740Z,10.82
2022-10-22T08:09:33.701Z,10.15
2022-10-22T08:12:20.554Z,13.90
2022-10-22T08:15:06.915Z,10.27
2022-10-22T08:17:53.047Z,9.80
2022-10-22T08:20:39.682Z,12.20
2022-10-22T08:23:27.693Z,7.93
2022-10-22T08:26:14.779Z,9.95
2022-10-22T08:29:01.036Z,9.93
2022-10-22T08:31:47.210Z,14.80
2022-10-22T08:34:33.161Z,8.98
2022-10-22T08:37:19.494Z,10.13
2022-10-22T08:40:07.973Z,15.88
2022-10-22T08:43:03.820Z,14.77
2022-10-22T08:46:09.337Z,11.98
2022-10-22T08:49:00.625Z,6.22
2022-10-22T08:51:50.313Z,7.25
2022-10-22T08:54:47.095Z,7.57
2022-10-22T08:57:39.567Z,6.90
2022-10-22T09:00:31.889Z,12.32
2022-10-22T09:03:44.759Z,9.52
2022-10-22T09:06:32.051Z,8.95
2022-10-22T09:09:18.825Z,6.13
2022-10-22T09:12:05.583Z,11.50
2022-10-22T09:14:51.940Z,8.02
2022-10-22T09:17:56.811Z,18.77
2022-10-22T09:20:58.719Z,6.70
2022-10-22T09:23:55.189Z,6.30
2022-10-22T09:26:41.877Z,6.88
2022-10-22T09:29:32.549Z,9.15
2022-10-22T09:32:19.171Z,10.20
2022-10-22T09:35:09.835Z,6.25
2022-10-22T09:37:56.749Z,5.75
2022-10-22T09:40:43.856Z,6.15
2022-10-22T09:43:30.388Z,14.60
2022-10-22T09:46:18.313Z,6.80
2022-10-22T09:49:11.029Z,7.63
2022-10-22T09:51:58.131Z,7.47
2022-10-22T09:54:44.323Z,8.05
2022-10-22T09:57:30.589Z,7.60
2022-10-22T10:00:19.448Z,13.18
2022-10-22T10:03:06.101Z,9.48
2022-10-22T10:05:54.028Z,4.93
2022-10-22T10:08:40.286Z,4.13
2022-10-22T10:11:35.200Z,7.90
2022-10-22T10:14:55.274Z,6.85
2022-10-22T10:17:54.219Z,8.50
2022-10-22T10:21:18.102Z,6.43
2022-10-22T10:24:10.137Z,14.05
2022-10-22T10:27:05.452Z,19.08
2022-10-22T10:30:00.880Z,7.75
2022-10-22T10:32:50.150Z,10.73
2022-10-22T10:35:46.644Z,4.13
2022-10-22T10:38:33.107Z,7.88
2022-10-22T10:41:25.385Z,6.85
2022-10-22T10:44:26.764Z,10.60
2022-10-22T10:47:19.044Z,9.63
2022-10-22T10:50:16.741Z,15.75
2022-10-22T10:53:15.243Z,11.68
2022-10-22T10:56:14.932Z,11.52
2022-10-22T10:59:25.859Z,6.32
2022-10-22T11:02:30.285Z,9.45
2022-10-22T11:05:16.806Z,7.85
2022-10-22T11:08:19.197Z,51.90
2022-10-22T11:14:07.619Z,19.40
2022-10-22T11:16:53.577Z,11.43
2022-10-22T11:19:51.532Z,3.40
2022-10-22T11:23:18.070Z,11.90
2022-10-22T11:26:05.774Z,9.57
2022-10-22T11:28:53.852Z,4.43
2022-10-22T11:31:40.273Z,8.07
2022-10-22T11:34:44.245Z,4.57
2022-10-22T11:37:34.699Z,3.53
2022-10-22T11:40:22.273Z,3.25
2022-10-22T11:43:09.656Z,4.03
2022-10-22T11:46:03.098Z,9.13
2022-10-22T11:49:08.040Z,5.18
2022-10-22T11:52:06.250Z,5.47
2022-10-22T11:54:57.879Z,8.15
2022-10-22T11:57:43.838Z,6.40
2022-10-22T12:00:49.770Z,6.35
2022-10-22T12:03:38.076Z,4.47
2022-10-22T12:06:28.035Z,6.05
2022-10-22T12:09:14.219Z,6.45
2022-10-22T12:12:10.729Z,3.10
2022-10-22T12:14:59.800Z,7.93
2022-10-22T12:17:46.029Z,6.20
2022-10-22T12:20:32.688Z,11.45
2022-10-22T12:23:18.950Z,7.50
2022-10-22T12:26:05.762Z,5.05
2022-10-22T12:29:11.975Z,9.75
2022-10-22T12:32:02.298Z,5.45
2022-10-22T12:37:37.275Z,10.00
2022-10-22T12:40:27.946Z,8.55
2022-10-22T12:43:16.305Z,8.43
2022-10-22T12:46:02.212Z,7.03
2022-10-22T12:48:48.509Z,8.45
2022-10-22T12:51:34.956Z,5.22
2022-10-22T12:54:28.552Z,7.03
2022-10-22T12:57:16.283Z,6.15
2022-10-22T13:00:02.373Z,6.43
2022-10-22T13:02:53.927Z,10.98
2022-10-22T13:05:40.242Z,9.18
2022-10-22T13:08:28.291Z,9.07
2022-10-22T13:11:20.524Z,8.40
2022-10-22T13:14:18.198Z,10.45
2022-10-22T13:17:10.504Z,11.38
2022-10-22T13:19:56.836Z,7.38
2022-10-22T13:22:58.509Z,5.07
2022-10-22T13:25:44.386Z,6.60
2022-10-22T13:28:33.615Z,9.50
2022-10-22T13:31:22.925Z,9.88
2022-10-22T13:34:17.272Z,11.38
2022-10-22T13:37:03.969Z,11.52
2022-10-22T13:39:49.960Z,14.38
2022-10-22T13:42:36.448Z,12.48
2022-10-22T13:45:22.713Z,11.30
2022-10-22T13:48:12.981Z,17.98
2022-10-22T13:50:59.472Z,8.82
2022-10-22T13:53:46.867Z,15.48
2022-10-22T13:56:33.016Z,16.10
2022-10-22T13:59:22.797Z,22.42
2022-10-22T14:02:12.371Z,21.73
2022-10-22T14:05:03.337Z,18.92
2022-10-22T14:07:49.454Z,15.75
2022-10-22T14:10:35.426Z,14.18
2022-10-22T14:13:21.525Z,15.93
2022-10-22T14:16:08.698Z,32.15
2022-10-22T14:19:17.801Z,23.75
2022-10-22T14:22:03.661Z,14.57
2022-10-22T14:24:52.058Z,21.70
2022-10-22T14:27:38.565Z,9.10
2022-10-22T14:30:25.712Z,13.50
2022-10-22T14:33:16.059Z,11.70
2022-10-22T14:36:02.331Z,10.75
2022-10-22T14:38:48.867Z,12.00
2022-10-22T14:41:34.661Z,12.10
2022-10-22T14:44:21.023Z,9.18
2022-10-22T14:47:07.084Z,8.85
2022-10-22T14:50:11.837Z,9.50
2022-10-22T14:52:59.961Z,14.27
2022-10-22T14:55:47.538Z,14.20
2022-10-22T14:58:33.477Z,25.27
2022-10-22T15:01:19.794Z,17.05
2022-10-22T15:04:27.066Z,13.63
2022-10-22T15:07:16.882Z,11.82
2022-10-22T15:12:50.469Z,11.25
2022-10-22T15:15:39.789Z,18.27
2022-10-22T15:18:27.020Z,12.80
2022-10-22T15:21:31.874Z,15.10
2022-10-22T15:24:18.887Z,23.20
2022-10-22T15:27:04.776Z,22.27
2022-10-22T15:29:51.090Z,28.67
2022-10-22T15:32:37.158Z,28.10
2022-10-22T15:35:23.385Z,21.60
2022-10-22T15:38:10.097Z,12.85
2022-10-22T15:41:05.265Z,29.20
2022-10-22T15:43:53.030Z,19.45
2022-10-22T15:46:39.347Z,24.83
2022-10-22T15:49:26.283Z,23.70
2022-10-22T15:52:12.658Z,24.88
2022-10-22T15:55:17.205Z,23.15
2022-10-22T15:58:04.300Z,19.95
2022-10-22T16:00:51.156Z,26.83
2022-10-22T16:03:37.952Z,20.58
2022-10-22T16:06:24.356Z,21.42
2022-10-22T16:09:12.472Z,21.00
2022-10-22T16:11:58.531Z,12.55
2022-10-22T16:14:44.813Z,10.05
2022-10-22T16:17:31.296Z,9.00
2022-10-22T16:20:17.802Z,15.40
2022-10-22T16:23:04.156Z,16.58
2022-10-22T16:25:50.482Z,17.75
2022-10-22T16:28:36.818Z,29.50
2022-10-22T16:31:22.824Z,29.27
2022-10-22T16:34:09.271Z,21.20
2022-10-22T16:36:57.083Z,21.20
2022-10-22T16:39:43.186Z,50.58
2022-10-22T16:42:29.640Z,46.35
2022-10-22T16:45:16.721Z,24.17
2022-10-22T16:48:02.728Z,20.77
2022-10-22T16:50:48.895Z,19.52
2022-10-22T16:56:26.473Z,13.52
2022-10-22T16:59:12.984Z,24.42
2022-10-22T17:01:59.069Z,13.95
2022-10-22T17:04:45.363Z,14.48
2022-10-22T17:07:31.612Z,14.38
2022-10-22T17:10:19.860Z,11.10
2022-10-22T17:13:06.475Z,15.10
2022-10-22T17:15:52.616Z,17.23
2022-10-22T17:18:40.469Z,18.88
2022-10-22T17:21:26.510Z,70.15
2022-10-22T17:24:12.836Z,71.93
2022-10-22T17:26:58.974Z,54.58
2022-10-22T17:29:45.089Z,83.10
2022-10-22T17:32:31.408Z,57.70
2022-10-22T17:35:17.673Z,37.00
2022-10-22T17:38:03.855Z,68.95
2022-10-22T17:40:50.632Z,169.88
2022-10-22T17:43:37.536Z,62.58
2022-10-22T17:46:25.153Z,80.32
2022-10-22T17:49:19.060Z,66.53
2022-10-22T17:52:05.373Z,58.45
2022-10-22T17:54:53.296Z,58.65
2022-10-22T17:57:39.386Z,33.15
2022-10-22T18:00:25.997Z,32.55
2022-10-22T18:03:12.396Z,22.17
2022-10-22T18:06:05.540Z,17.38
2022-10-22T18:08:51.603Z,9.70
2022-10-22T18:11:38.956Z,15.93
2022-10-22T18:14:25.548Z,15.40
2022-10-22T18:17:12.338Z,10.20
2022-10-22T18:19:58.660Z,13.82
2022-10-22T18:22:45.511Z,15.30
2022-10-22T18:25:31.954Z,14.02
2022-10-22T18:28:19.332Z,18.30
2022-10-22T18:31:09.680Z,14.15
2022-10-22T18:33:56.814Z,20.80
2022-10-22T18:36:42.783Z,6.80
2022-10-22T18:39:29.098Z,10.57
2022-10-22T18:45:01.547Z,10.55
2022-10-22T18:47:47.944Z,10.98
2022-10-22T18:50:33.949Z,16.20
2022-10-22T18:53:20.269Z,7.93
2022-10-22T18:56:09.842Z,15.75
2022-10-22T18:58:56.503Z,12.60
2022-10-22T19:01:43.458Z,13.80
2022-10-22T19:04:37.247Z,16.98
2022-10-22T19:07:23.589Z,12.35
2022-10-22T19:10:10.091Z,16.25
2022-10-22T19:12:57.567Z,16.80
2022-10-22T19:15:44.428Z,18.08
2022-10-22T19:18:30.463Z,57.63
2022-10-22T19:21:16.861Z,57.40
2022-10-22T19:24:22.083Z,44.70
2022-10-22T19:27:08.679Z,33.78
2022-10-22T19:29:54.743Z,18.67
2022-10-22T19:32:41.172Z,29.48
2022-10-22T19:35:30.593Z,36.22
2022-10-22T19:38:16.937Z,39.72
2022-10-22T19:41:03.325Z,40.30
2022-10-22T19:43:50.234Z,48.63
2022-10-22T19:46:36.654Z,42.55
2022-10-22T19:49:42.791Z,40.92
2022-10-22T19:52:28.967Z,30.70
2022-10-22T19:55:15.197Z,30.83
2022-10-22T19:58:04.261Z,22.33
2022-10-22T20:00:51.926Z,21.67
2022-10-22T20:03:39.948Z,17.02
2022-10-22T20:06:27.548Z,17.27
2022-10-22T20:09:14.105Z,13.45
2022-10-22T20:12:01.969Z,9.90
2022-10-22T20:14:49.355Z,13.60
2022-10-22T20:17:35.827Z,22.23
2022-10-22T20:20:26.609Z,13.95
2022-10-22T20:23:13.523Z,22.67
2022-10-22T20:25:59.765Z,19.95
2022-10-22T20:28:46.524Z,15.93
2022-10-22T20:31:33.281Z,28.75
2022-10-22T20:34:20.805Z,32.58
2022-10-22T20:37:07.302Z,24.70
2022-10-22T20:39:54.534Z,25.13
2022-10-22T20:42:45.355Z,25.90
2022-10-22T20:45:35.174Z,15.82
2022-10-22T20:48:21.872Z,15.05
2022-10-22T20:51:08.420Z,15.85
2022-10-22T20:53:54.612Z,19.10
2022-10-22T20:56:40.877Z,26.63
2022-10-22T20:59:32.899Z,38.60
2022-10-22T21:02:19.459Z,39.70
2022-10-22T21:05:06.392Z,37.78
2022-10-22T21:07:52.530Z,35.70
2022-10-22T21:10:38.611Z,65.15
2022-10-22T21:13:25.077Z,42.97
2022-10-22T21:16:12.924Z,30.48
2022-10-22T21:18:59.472Z,38.03
2022-10-22T21:21:45.496Z,52.03
2022-10-22T21:24:31.702Z,56.28
2022-10-22T21:27:17.850Z,39.38
2022-10-22T21:30:04.441Z,58.78
2022-10-22T21:32:51.862Z,55.17
2022-10-22T21:35:57.120Z,70.78
2022-10-22T21:38:43.153Z,80.72
2022-10-22T21:41:29.765Z,66.50
2022-10-22T21:44:16.435Z,61.53
2022-10-22T21:47:02.841Z,54.13
2022-10-22T21:49:49.524Z,61.65
2022-10-22T21:52:36.056Z,59.00
2022-10-22T21:55:22.314Z,59.00
2022-10-22T21:58:08.972Z,58.65
2022-10-22T22:00:57.184Z,54.95
2022-10-22T22:03:45.321Z,57.90
2022-10-22T22:06:33.433Z,38.33
2022-10-22T22:09:23.691Z,21.67
2022-10-22T22:12:12.783Z,19.20
2022-10-22T22:14:59.707Z,14.43
2022-10-22T22:17:45.481Z,14.95
2022-10-22T22:20:32.700Z,9.13
2022-10-22T22:23:19.810Z,10.73
2022-10-22T22:26:06.341Z,9.05
2022-10-22T22:28:52.456Z,14.85
2022-10-22T22:31:38.786Z,10.77
2022-10-22T22:34:25.596Z,14.55
2022-10-22T22:37:12.548Z,11.30
2022-10-22T22:39:58.628Z,13.45
2022-10-22T22:42:44.426Z,17.63
2022-10-22T22:45:30.793Z,17.50
2022-10-22T22:48:16.871Z,24.38
2022-10-22T22:51:03.725Z,20.45
2022-10-22T22:53:50.021Z,26.10
2022-10-22T22:56:39.730Z,23.02
2022-10-22T22:59:25.643Z,20.00
2022-10-22T23:02:15.063Z,27.92
2022-10-22T23:05:01.096Z,24.95
2022-10-22T23:07:47.654Z,29.80
2022-10-22T23:10:36.815Z,37.60
2022-10-22T23:13:26.375Z,34.83
2022-10-22T23:16:17.219Z,36.10
2022-10-22T23:19:04.483Z,33.03
2022-10-22T23:21:54.369Z,26.23
2022-10-22T23:24:40.324Z,25.73
2022-10-22T23:27:26.739Z,39.33
2022-10-22T23:30:13.318Z,32.42
2022-10-22T23:32:59.216Z,28.88
2022-10-22T23:35:45.711Z,34.95
2022-10-22T23:38:32.553Z,33.13
2022-10-22T23:41:18.701Z,36.83
2022-10-22T23:44:05.848Z,24.02
2022-10-22T23:46:51.866Z,15.30
2022-10-22T23:49:37.917Z,21.25
2022-10-22T23:52:24.238Z,21.67
2022-10-22T23:55:10.418Z,15.13
2022-10-22T23:57:59.192Z,16.40
